createdAt,value
2019-06-10T00:01:51.410Z,16.50
2019-06-10T00:04:22.241Z,16.40
2019-06-10T00:06:51.065Z,16.40
2019-06-10T00:09:21.162Z,16.30
2019-06-10T00:11:51.548Z,16.40
2019-06-10T00:14:38.969Z,16.40
2019-06-10T00:17:08.065Z,16.50
2019-06-10T00:19:36.947Z,16.40
2019-06-10T00:22:07.181Z,16.40
2019-06-10T00:24:36.310Z,16.40
2019-06-10T00:27:06.759Z,16.30
2019-06-10T00:29:35.674Z,16.30
2019-06-10T00:32:06.525Z,16.30
2019-06-10T00:34:36.078Z,16.20
2019-06-10T00:37:07.283Z,16.10
2019-06-10T00:39:35.403Z,16.10
2019-06-10T00:42:07.554Z,16.10
2019-06-10T00:44:34.710Z,16.20
2019-06-10T00:47:06.322Z,16.10
2019-06-10T00:49:33.997Z,16.10
2019-06-10T00:52:04.220Z,16.10
2019-06-10T00:54:51.927Z,16.20
2019-06-10T00:57:21.062Z,16.20
2019-06-10T00:59:50.769Z,16.10
2019-06-10T01:02:21.341Z,16.10
2019-06-10T01:04:51.406Z,16.20
2019-06-10T01:07:21.828Z,16.30
2019-06-10T01:09:51.713Z,16.40
2019-06-10T01:12:21.141Z,16.30
2019-06-10T01:14:51.686Z,16.30
2019-06-10T01:17:21.325Z,16.30
2019-06-10T01:19:50.911Z,16.30
2019-06-10T01:22:21.310Z,16.10
2019-06-10T01:24:51.045Z,16.10
2019-06-10T01:27:21.228Z,16.00
2019-06-10T01:29:51.128Z,15.90
2019-06-10T01:32:21.668Z,15.90
2019-06-10T01:34:50.896Z,15.90
2019-06-10T01:37:21.766Z,15.90
2019-06-10T01:39:51.511Z,16.00
2019-06-10T01:42:21.596Z,16.00
2019-06-10T01:44:50.726Z,15.80
2019-06-10T01:47:21.562Z,15.80
2019-06-10T01:49:51.661Z,15.90
2019-06-10T01:52:21.177Z,15.90
2019-06-10T01:54:51.577Z,15.90
2019-06-10T01:57:21.958Z,15.80
2019-06-10T01:59:51.064Z,15.80
2019-06-10T02:02:23.738Z,15.70
2019-06-10T02:04:52.016Z,15.80
2019-06-10T02:07:23.075Z,15.80
2019-06-10T02:09:51.794Z,15.90
2019-06-10T02:12:24.043Z,15.90
2019-06-10T02:14:51.138Z,15.80
2019-06-10T02:17:23.595Z,15.80
2019-06-10T02:19:50.883Z,15.80
2019-06-10T02:22:23.916Z,15.80
2019-06-10T02:24:50.695Z,15.90
2019-06-10T02:27:21.879Z,15.80
2019-06-10T02:29:50.718Z,15.80
2019-06-10T02:32:30.131Z,15.80
2019-06-10T02:35:06.962Z,15.80
2019-06-10T02:37:25.559Z,15.90
2019-06-10T02:39:54.186Z,16.00
2019-06-10T02:42:30.161Z,16.10
2019-06-10T02:44:59.091Z,16.00
2019-06-10T02:47:33.411Z,16.00
2019-06-10T02:50:04.498Z,16.10
2019-06-10T02:52:34.156Z,16.20
2019-06-10T02:55:04.237Z,16.10
2019-06-10T02:57:39.027Z,16.10
2019-06-10T03:00:06.607Z,16.00
2019-06-10T03:02:36.196Z,16.20
2019-06-10T03:05:04.490Z,16.20
2019-06-10T03:07:35.561Z,16.20
2019-06-10T03:10:06.265Z,16.20
2019-06-10T03:12:35.139Z,16.20
2019-06-10T03:15:05.230Z,16.20
2019-06-10T03:17:34.128Z,16.20
2019-06-10T03:20:02.986Z,16.10
2019-06-10T03:22:32.754Z,16.00
2019-06-10T03:25:02.922Z,16.00
2019-06-10T03:27:32.863Z,16.00
2019-06-10T03:30:04.814Z,16.00
2019-06-10T03:32:40.393Z,15.90
2019-06-10T03:35:05.621Z,15.90
2019-06-10T03:37:34.577Z,15.90
2019-06-10T03:40:04.962Z,15.90
2019-06-10T03:42:33.737Z,15.90
2019-06-10T03:45:03.289Z,15.80
2019-06-10T03:47:32.528Z,15.80
2019-06-10T03:50:03.238Z,15.80
2019-06-10T03:52:32.544Z,15.80
2019-06-10T03:55:03.000Z,16.00
2019-06-10T03:57:33.113Z,16.00
2019-06-10T04:00:10.030Z,16.10
2019-06-10T04:02:34.118Z,16.20
2019-06-10T04:05:02.987Z,16.30
2019-06-10T04:07:34.169Z,16.30
2019-06-10T04:10:02.603Z,16.30
2019-06-10T04:12:32.773Z,16.30
2019-06-10T04:15:03.119Z,16.40
2019-06-10T04:17:33.322Z,16.30
2019-06-10T04:20:12.061Z,16.30
2019-06-10T04:22:33.028Z,16.30
2019-06-10T04:25:03.064Z,16.40
2019-06-10T04:27:32.840Z,16.40
2019-06-10T04:30:03.320Z,16.30
2019-06-10T04:32:32.485Z,16.30
2019-06-10T04:35:02.239Z,16.40
2019-06-10T04:37:32.495Z,16.50
2019-06-10T04:40:02.823Z,16.50
2019-06-10T04:42:33.014Z,16.50
2019-06-10T04:45:03.219Z,16.60
2019-06-10T04:47:33.236Z,16.70
2019-06-10T04:50:03.149Z,16.80
2019-06-10T04:52:32.895Z,16.80
2019-06-10T04:55:02.691Z,16.90
2019-06-10T04:57:32.739Z,17.10
2019-06-10T05:00:04.110Z,17.20
2019-06-10T05:02:33.052Z,17.30
2019-06-10T05:05:03.169Z,17.30
2019-06-10T05:07:36.692Z,17.40
2019-06-10T05:10:03.222Z,17.40
2019-06-10T05:12:32.759Z,17.30
2019-06-10T05:15:03.562Z,17.20
2019-06-10T05:17:34.266Z,17.30
2019-06-10T05:20:02.752Z,17.60
2019-06-10T05:22:32.798Z,17.80
2019-06-10T05:25:02.447Z,17.70
2019-06-10T05:27:33.011Z,17.70
2019-06-10T05:30:02.489Z,17.60
2019-06-10T05:32:33.445Z,17.40
2019-06-10T05:35:03.535Z,17.30
2019-06-10T05:37:33.880Z,17.20
2019-06-10T05:40:03.728Z,17.10
2019-06-10T05:42:35.837Z,17.00
2019-06-10T05:45:03.349Z,17.20
2019-06-10T05:47:35.668Z,18.40
2019-06-10T05:50:03.281Z,20.40
2019-06-10T05:52:33.821Z,22.00
2019-06-10T05:55:03.004Z,23.20
2019-06-10T05:57:34.158Z,24.40
2019-06-10T06:00:10.787Z,25.30
2019-06-10T06:02:35.418Z,26.20
2019-06-10T06:05:05.591Z,27.30
2019-06-10T06:07:35.717Z,28.10
2019-06-10T06:10:06.523Z,28.90
2019-06-10T06:12:35.765Z,29.40
2019-06-10T06:15:06.054Z,29.40
2019-06-10T06:17:35.461Z,29.80
2019-06-10T06:20:07.680Z,30.00
2019-06-10T06:22:37.547Z,29.80
2019-06-10T06:25:07.859Z,29.60
2019-06-10T06:27:37.084Z,30.20
2019-06-10T06:30:15.071Z,30.80
2019-06-10T06:32:38.733Z,31.20
2019-06-10T06:35:07.785Z,31.50
2019-06-10T06:37:39.143Z,31.70
2019-06-10T06:40:07.841Z,31.60
2019-06-10T06:42:37.917Z,31.60
2019-06-10T06:45:07.644Z,31.50
2019-06-10T06:47:37.728Z,31.10
2019-06-10T06:50:06.917Z,29.80
2019-06-10T06:53:12.603Z,29.20
2019-06-10T06:55:06.754Z,29.30
2019-06-10T06:57:36.773Z,29.30
2019-06-10T07:00:35.343Z,28.50
2019-06-10T07:02:43.744Z,28.00
2019-06-10T07:05:13.804Z,27.80
2019-06-10T07:07:44.126Z,26.80
2019-06-10T07:10:14.561Z,26.90
2019-06-10T07:12:44.449Z,27.30
2019-06-10T07:15:13.849Z,27.90
2019-06-10T07:17:45.550Z,29.00
2019-06-10T07:20:13.448Z,29.60
2019-06-10T07:22:46.321Z,30.50
2019-06-10T07:25:13.011Z,30.40
2019-06-10T07:27:45.206Z,30.10
2019-06-10T07:30:14.993Z,29.60
2019-06-10T07:32:47.093Z,29.30
2019-06-10T07:35:13.342Z,29.90
2019-06-10T07:37:44.472Z,31.10
2019-06-10T07:40:13.137Z,31.80
2019-06-10T07:42:45.023Z,32.30
2019-06-10T07:45:13.059Z,32.30
2019-06-10T07:47:44.237Z,31.50
2019-06-10T07:50:12.986Z,31.10
2019-06-10T07:52:45.046Z,31.10
2019-06-10T07:55:13.008Z,32.10
2019-06-10T07:57:43.843Z,33.90
2019-06-10T08:00:14.306Z,34.80
2019-06-10T08:02:45.927Z,34.90
2019-06-10T08:05:14.875Z,34.30
2019-06-10T08:07:46.613Z,34.30
2019-06-10T08:10:15.759Z,33.40
2019-06-10T08:12:46.644Z,32.30
2019-06-10T08:15:15.210Z,31.60
2019-06-10T08:17:45.638Z,30.50
2019-06-10T08:20:16.146Z,29.60
2019-06-10T08:22:52.499Z,29.50
2019-06-10T08:25:16.412Z,30.50
2019-06-10T08:27:47.442Z,30.60
2019-06-10T08:30:22.996Z,31.20
2019-06-10T08:32:47.139Z,31.50
2019-06-10T08:35:16.721Z,31.10
2019-06-10T08:37:46.286Z,29.70
2019-06-10T08:40:16.124Z,28.80
2019-06-10T08:42:47.455Z,28.50
2019-06-10T08:45:17.914Z,28.40
2019-06-10T08:47:47.728Z,27.60
2019-06-10T08:50:17.282Z,26.90
2019-06-10T08:53:04.013Z,26.40
2019-06-10T08:55:17.442Z,25.90
2019-06-10T08:57:48.793Z,25.70
2019-06-10T09:00:18.757Z,25.50
2019-06-10T09:02:50.768Z,25.50
2019-06-10T09:05:19.526Z,26.00
2019-06-10T09:07:51.906Z,26.10
2019-06-10T09:10:22.528Z,25.60
2019-06-10T09:12:54.640Z,25.50
2019-06-10T09:15:23.642Z,25.50
2019-06-10T09:17:56.055Z,25.40
2019-06-10T09:20:23.807Z,25.20
2019-06-10T09:23:13.923Z,24.60
2019-06-10T09:25:23.277Z,24.30
2019-06-10T09:27:54.635Z,24.00
2019-06-10T09:30:23.325Z,23.80
2019-06-10T09:32:56.373Z,23.80
2019-06-10T09:35:24.037Z,23.90
2019-06-10T09:37:56.026Z,24.00
2019-06-10T09:40:47.528Z,26.50
2019-06-10T09:43:14.511Z,30.20
2019-06-10T09:45:45.873Z,32.30
2019-06-10T09:48:15.615Z,31.90
2019-06-10T09:50:48.885Z,31.10
2019-06-10T09:53:28.971Z,30.70
2019-06-10T09:55:48.028Z,30.90
2019-06-10T09:58:16.076Z,31.00
2019-06-10T10:00:57.519Z,31.10
2019-06-10T10:03:24.490Z,30.70
2019-06-10T10:06:15.712Z,31.00
2019-06-10T10:08:46.170Z,31.90
2019-06-10T10:11:13.908Z,31.30
2019-06-10T10:13:46.079Z,30.70
2019-06-10T10:16:13.353Z,30.40
2019-06-10T10:18:45.840Z,30.50
2019-06-10T10:21:13.226Z,30.10
2019-06-10T10:23:54.299Z,29.50
2019-06-10T10:26:13.949Z,29.30
2019-06-10T10:28:44.622Z,29.10
2019-06-10T10:31:13.675Z,28.50
2019-06-10T10:33:42.713Z,28.50
2019-06-10T10:36:14.030Z,29.40
2019-06-10T10:38:42.610Z,30.20
2019-06-10T10:41:13.382Z,31.20
2019-06-10T10:43:43.573Z,33.10
2019-06-10T10:46:14.034Z,34.90
2019-06-10T10:48:43.204Z,36.50
2019-06-10T10:51:13.143Z,38.10
2019-06-10T10:53:46.544Z,39.10
2019-06-10T10:56:13.158Z,39.70
2019-06-10T10:58:44.982Z,40.80
2019-06-10T11:01:15.139Z,41.20
2019-06-10T11:03:47.344Z,41.50
2019-06-10T11:06:14.982Z,40.90
2019-06-10T11:08:46.292Z,39.20
2019-06-10T11:11:14.908Z,37.20
2019-06-10T11:13:45.635Z,35.50
2019-06-10T11:16:14.922Z,34.00
2019-06-10T11:18:43.711Z,32.50
2019-06-10T11:21:13.313Z,31.50
2019-06-10T11:23:43.540Z,31.60
2019-06-10T11:26:13.264Z,34.30
2019-06-10T11:28:43.166Z,34.50
2019-06-10T11:31:13.890Z,33.70
2019-06-10T11:33:43.735Z,33.00
2019-06-10T11:36:13.475Z,32.30
2019-06-10T11:38:43.058Z,32.20
2019-06-10T11:41:13.380Z,34.20
2019-06-10T11:43:43.167Z,37.30
2019-06-10T11:46:32.357Z,39.70
2019-06-10T11:49:03.190Z,41.20
2019-06-10T11:51:31.433Z,42.40
2019-06-10T11:54:00.329Z,42.90
2019-06-10T11:56:29.108Z,43.20
2019-06-10T11:58:59.208Z,43.00
2019-06-10T12:01:28.432Z,41.30
2019-06-10T12:03:58.870Z,39.70
2019-06-10T12:06:28.669Z,39.10
2019-06-10T12:09:00.401Z,38.10
2019-06-10T12:11:27.928Z,37.10
2019-06-10T12:14:00.969Z,35.80
2019-06-10T12:18:58.956Z,33.00
2019-06-10T12:21:28.292Z,32.60
2019-06-10T12:24:01.244Z,32.40
2019-06-10T12:26:29.351Z,32.00
2019-06-10T12:28:59.371Z,32.00
2019-06-10T12:31:28.729Z,33.50
2019-06-10T12:33:59.075Z,36.50
2019-06-10T12:36:28.034Z,38.40
2019-06-10T12:39:01.879Z,39.10
2019-06-10T12:41:27.562Z,39.20
2019-06-10T12:43:56.655Z,38.00
2019-06-10T12:46:26.662Z,37.90
2019-06-10T12:48:58.167Z,38.80
2019-06-10T12:51:26.551Z,39.00
2019-06-10T12:53:55.611Z,38.40
2019-06-10T12:56:25.038Z,36.70
2019-06-10T12:58:55.808Z,33.80
2019-06-10T13:01:24.414Z,32.00
2019-06-10T13:03:53.852Z,30.70
2019-06-10T13:06:26.466Z,30.00
2019-06-10T13:08:58.057Z,29.00
2019-06-10T13:11:26.943Z,28.20
2019-06-10T13:13:56.252Z,27.40
2019-06-10T13:16:25.226Z,27.00
2019-06-10T13:18:54.030Z,26.70
2019-06-10T13:21:22.991Z,26.40
2019-06-10T13:23:54.106Z,26.80
2019-06-10T13:26:23.192Z,27.20
2019-06-10T13:28:52.620Z,27.20
2019-06-10T13:31:23.577Z,26.90
2019-06-10T13:33:52.920Z,26.80
2019-06-10T13:36:25.856Z,26.70
2019-06-10T13:38:53.259Z,27.10
2019-06-10T13:41:22.747Z,27.10
2019-06-10T13:43:52.817Z,27.40
2019-06-10T13:46:24.568Z,27.70
2019-06-10T13:48:52.906Z,27.60
2019-06-10T13:51:21.760Z,27.50
2019-06-10T13:53:53.586Z,27.60
2019-06-10T13:56:39.779Z,27.90
2019-06-10T13:58:52.283Z,28.20
2019-06-10T14:01:22.142Z,28.00
2019-06-10T14:03:53.653Z,27.90
2019-06-10T14:06:39.693Z,27.70
2019-06-10T14:08:54.866Z,27.50
2019-06-10T14:11:26.934Z,27.90
2019-06-10T14:13:54.043Z,28.40
2019-06-10T14:16:23.637Z,28.60
2019-06-10T14:18:54.408Z,28.30
2019-06-10T14:21:23.712Z,28.10
2019-06-10T14:23:53.708Z,28.20
2019-06-10T14:26:36.765Z,28.30
2019-06-10T14:28:53.132Z,28.50
2019-06-10T14:31:39.455Z,28.60
2019-06-10T14:33:53.237Z,28.60
2019-06-10T14:36:22.268Z,28.70
2019-06-10T14:38:51.097Z,28.70
2019-06-10T14:41:19.930Z,28.50
2019-06-10T14:43:49.656Z,28.40
2019-06-10T14:46:18.552Z,28.20
2019-06-10T14:48:47.338Z,28.00
2019-06-10T14:51:17.158Z,28.20
2019-06-10T14:53:46.234Z,28.10
2019-06-10T14:56:19.370Z,27.80
2019-06-10T14:58:46.548Z,27.60
2019-06-10T15:01:22.014Z,27.00
2019-06-10T15:03:45.843Z,27.00
2019-06-10T15:06:15.672Z,26.80
2019-06-10T15:08:44.591Z,26.70
2019-06-10T15:11:13.696Z,26.70
2019-06-10T15:13:43.455Z,26.60
2019-06-10T15:16:12.530Z,26.60
2019-06-10T15:18:43.220Z,26.60
2019-06-10T15:21:13.141Z,26.50
2019-06-10T15:23:42.908Z,26.30
2019-06-10T15:26:14.525Z,26.10
2019-06-10T15:28:42.811Z,26.00
2019-06-10T15:31:13.462Z,26.00
2019-06-10T15:33:43.002Z,25.90
2019-06-10T15:36:13.084Z,25.80
2019-06-10T15:38:44.042Z,25.60
2019-06-10T15:41:16.346Z,25.30
2019-06-10T15:43:43.182Z,25.20
2019-06-10T15:46:12.950Z,25.20
2019-06-10T15:48:43.032Z,25.10
2019-06-10T15:51:15.423Z,25.00
2019-06-10T15:53:43.787Z,24.90
2019-06-10T15:56:23.891Z,24.70
2019-06-10T15:58:43.076Z,24.70
2019-06-10T16:01:16.678Z,24.60
2019-06-10T16:03:43.562Z,24.50
2019-06-10T16:06:13.899Z,24.50
2019-06-10T16:08:43.154Z,24.50
2019-06-10T16:11:15.400Z,24.40
2019-06-10T16:13:43.101Z,24.40
2019-06-10T16:16:12.974Z,24.30
2019-06-10T16:18:42.388Z,24.20
2019-06-10T16:21:13.283Z,24.10
2019-06-10T16:23:43.000Z,23.90
2019-06-10T16:26:13.127Z,23.70
2019-06-10T16:28:42.817Z,23.50
2019-06-10T16:31:13.194Z,23.50
2019-06-10T16:33:49.144Z,23.40
2019-06-10T16:36:14.904Z,23.40
2019-06-10T16:38:46.719Z,23.30
2019-06-10T16:41:17.440Z,23.10
2019-06-10T16:43:46.421Z,22.90
2019-06-10T16:46:16.027Z,22.80
2019-06-10T16:48:44.988Z,22.70
2019-06-10T16:51:15.003Z,22.70
2019-06-10T16:53:43.813Z,22.60
2019-06-10T16:56:12.662Z,22.50
2019-06-10T16:58:43.242Z,22.40
2019-06-10T17:01:12.551Z,22.50
2019-06-10T17:03:42.455Z,22.40
2019-06-10T17:06:13.273Z,22.50
2019-06-10T17:08:42.658Z,22.30
2019-06-10T17:11:12.466Z,22.20
2019-06-10T17:13:42.281Z,22.20
2019-06-10T17:16:12.694Z,22.20
2019-06-10T17:18:41.718Z,22.10
2019-06-10T17:21:13.040Z,22.00
2019-06-10T17:23:43.412Z,21.80
2019-06-10T17:26:12.314Z,21.60
2019-06-10T17:28:42.872Z,21.30
2019-06-10T17:31:11.602Z,20.90
2019-06-10T17:33:42.687Z,20.60
2019-06-10T17:36:12.592Z,20.40
2019-06-10T17:38:43.004Z,20.20
2019-06-10T17:41:13.273Z,20.10
2019-06-10T17:43:42.895Z,20.10
2019-06-10T17:46:13.466Z,20.30
2019-06-10T17:48:43.163Z,20.40
2019-06-10T17:51:12.094Z,20.50
2019-06-10T17:53:42.724Z,20.60
2019-06-10T17:56:13.332Z,20.50
2019-06-10T17:58:53.750Z,20.60
2019-06-10T18:01:13.934Z,20.70
2019-06-10T18:03:43.037Z,20.60
2019-06-10T18:06:13.298Z,20.60
2019-06-10T18:08:42.431Z,20.40
2019-06-10T18:11:12.736Z,20.30
2019-06-10T18:13:42.811Z,20.20
2019-06-10T18:16:13.085Z,20.10
2019-06-10T18:18:42.628Z,20.00
2019-06-10T18:21:12.692Z,20.00
2019-06-10T18:23:43.537Z,20.00
2019-06-10T18:26:12.432Z,19.90
2019-06-10T18:28:57.884Z,19.70
2019-06-10T18:31:11.813Z,19.70
2019-06-10T18:33:42.482Z,19.70
2019-06-10T18:36:12.260Z,19.70
2019-06-10T18:38:43.350Z,19.80
2019-06-10T18:41:12.889Z,19.80
2019-06-10T18:43:44.716Z,19.70
2019-06-10T18:46:13.528Z,19.50
2019-06-10T18:48:43.077Z,19.60
2019-06-10T18:51:12.601Z,19.60
2019-06-10T18:53:42.548Z,19.60
2019-06-10T18:56:12.832Z,19.60
2019-06-10T18:58:42.576Z,19.60
2019-06-10T19:01:12.401Z,19.70
2019-06-10T19:03:43.030Z,19.80
2019-06-10T19:06:13.224Z,19.90
2019-06-10T19:08:44.324Z,19.90
2019-06-10T19:11:12.627Z,19.80
2019-06-10T19:13:43.621Z,19.80
2019-06-10T19:16:13.019Z,19.70
2019-06-10T19:18:43.178Z,19.80
2019-06-10T19:21:12.948Z,19.70
2019-06-10T19:23:43.866Z,19.60
2019-06-10T19:26:13.765Z,19.60
2019-06-10T19:28:45.275Z,19.80
2019-06-10T19:31:13.130Z,19.70
2019-06-10T19:33:47.362Z,19.70
2019-06-10T19:36:18.186Z,19.60
2019-06-10T19:38:47.092Z,19.50
2019-06-10T19:41:15.954Z,19.40
2019-06-10T19:43:45.479Z,19.40
2019-06-10T19:46:15.890Z,19.40
2019-06-10T19:48:56.908Z,19.40
2019-06-10T19:51:15.175Z,19.50
2019-06-10T19:53:45.136Z,19.60
2019-06-10T19:56:15.937Z,19.40
2019-06-10T19:58:46.410Z,19.30
2019-06-10T20:01:15.221Z,19.10
2019-06-10T20:03:46.751Z,19.10
2019-06-10T20:06:14.589Z,19.10
2019-06-10T20:08:46.011Z,19.20
2019-06-10T20:11:13.917Z,19.20
2019-06-10T20:13:46.550Z,19.30
2019-06-10T20:16:15.197Z,19.30
2019-06-10T20:18:47.648Z,19.30
2019-06-10T20:21:14.788Z,19.20
2019-06-10T20:23:45.760Z,19.20
2019-06-10T20:26:16.104Z,19.20
2019-06-10T20:28:46.679Z,19.20
2019-06-10T20:31:15.431Z,19.20
2019-06-10T20:33:44.396Z,19.10
2019-06-10T20:36:21.262Z,19.20
2019-06-10T20:38:48.219Z,19.20
2019-06-10T20:41:15.327Z,19.20
2019-06-10T20:43:45.869Z,19.20
2019-06-10T20:46:14.560Z,19.20
2019-06-10T20:48:47.164Z,19.10
2019-06-10T20:51:15.149Z,19.00
2019-06-10T20:53:45.928Z,18.80
2019-06-10T20:56:14.545Z,18.70
2019-06-10T20:58:43.818Z,18.60
2019-06-10T21:01:13.880Z,18.50
2019-06-10T21:03:44.218Z,18.50
2019-06-10T21:06:13.784Z,18.40
2019-06-10T21:08:46.789Z,18.50
2019-06-10T21:11:14.053Z,18.50
2019-06-10T21:13:47.078Z,18.50
2019-06-10T21:16:13.476Z,18.40
2019-06-10T21:18:45.247Z,18.30
2019-06-10T21:21:12.708Z,18.30
2019-06-10T21:23:44.639Z,18.30
2019-06-10T21:26:13.025Z,18.20
2019-06-10T21:28:44.357Z,18.30
2019-06-10T21:31:12.355Z,18.30
2019-06-10T21:33:43.864Z,18.30
2019-06-10T21:36:12.389Z,18.30
2019-06-10T21:38:44.318Z,18.20
2019-06-10T21:41:12.363Z,18.10
2019-06-10T21:43:45.942Z,18.10
2019-06-10T21:46:13.178Z,18.10
2019-06-10T21:48:43.830Z,18.00
2019-06-10T21:51:13.729Z,18.10
2019-06-10T21:53:42.639Z,18.10
2019-06-10T21:56:12.817Z,17.90
2019-06-10T21:58:42.398Z,17.80
2019-06-10T22:01:16.328Z,17.50
2019-06-10T22:03:44.467Z,17.40
2019-06-10T22:06:13.521Z,17.30
2019-06-10T22:08:42.847Z,17.30
2019-06-10T22:11:13.887Z,17.30
2019-06-10T22:13:43.983Z,17.30
2019-06-10T22:16:13.034Z,17.30
2019-06-10T22:18:41.918Z,17.30
2019-06-10T22:21:14.498Z,17.30
2019-06-10T22:23:42.343Z,17.30
2019-06-10T22:26:14.647Z,17.20
2019-06-10T22:28:43.537Z,17.10
2019-06-10T22:31:22.307Z,17.10
2019-06-10T22:33:43.197Z,17.20
2019-06-10T22:36:12.997Z,17.10
2019-06-10T22:38:41.965Z,17.10
2019-06-10T22:41:12.310Z,17.00
2019-06-10T22:43:42.674Z,17.00
2019-06-10T22:46:11.758Z,17.00
2019-06-10T22:48:42.520Z,17.10
2019-06-10T22:51:12.294Z,17.00
2019-06-10T22:53:42.503Z,16.80
2019-06-10T22:56:12.338Z,16.70
2019-06-10T22:58:41.454Z,16.60
2019-06-10T23:01:12.324Z,16.40
2019-06-10T23:03:40.707Z,16.30
2019-06-10T23:06:09.487Z,16.20
2019-06-10T23:08:38.353Z,16.10
2019-06-10T23:11:07.169Z,16.10
2019-06-10T23:13:36.010Z,16.00
2019-06-10T23:16:05.317Z,15.90
2019-06-10T23:18:34.107Z,15.90
2019-06-10T23:21:04.452Z,15.80
2019-06-10T23:23:33.978Z,15.70
2019-06-10T23:26:04.412Z,15.60
2019-06-10T23:28:33.227Z,15.70
2019-06-10T23:31:04.913Z,15.60
2019-06-10T23:33:32.500Z,15.60
2019-06-10T23:36:03.751Z,15.50
2019-06-10T23:38:32.911Z,15.40
2019-06-10T23:41:03.763Z,15.40
2019-06-10T23:43:33.066Z,15.20
2019-06-10T23:46:04.101Z,15.00
2019-06-10T23:48:32.955Z,14.90
2019-06-10T23:51:04.502Z,14.80
2019-06-10T23:53:32.836Z,14.70
2019-06-10T23:56:04.455Z,14.60
2019-06-10T23:58:32.917Z,14.70
